Terminal Aerodrome Forecast
Issued by NWS

Home | Current Version | Previous Version | Graphics & Text | Print | Product List | Glossary On
Versions: 1 2 3 4 5 6 7 8 9 10 11 12 13 14 15 16 17
958
FTUS43 KFGF 090250 AAA
TAFBJI
TAF AMD
KBJI 090250Z 0903/0924 29008KT P6SM OVC060
      TEMPO 0903/0905 5SM -SN
     FM091100 31004KT P6SM BKN015
     FM092300 29005KT P6SM BKN025=

USA.gov is the U.S. government's official web portal to all federal, state and local government web resources and services.